createdAt,value
2018-09-28T00:00:21.085Z,79.96
2018-09-28T00:01:21.078Z,80.01
2018-09-28T00:02:21.074Z,78.86
2018-09-28T00:03:21.065Z,79.82
2018-09-28T00:04:21.072Z,79.28
2018-09-28T00:05:21.057Z,79.72
2018-09-28T00:06:21.048Z,79.96
2018-09-28T00:07:21.042Z,78.33
2018-09-28T00:08:21.040Z,78.62
2018-09-28T00:09:21.030Z,78.96
2018-09-28T00:10:21.024Z,78.30
2018-09-28T00:11:21.017Z,78.67
2018-09-28T00:12:21.014Z,78.58
2018-09-28T00:13:21.007Z,78.23
2018-09-28T00:14:20.996Z,77.82
2018-09-28T00:15:20.992Z,79.10
2018-09-28T00:16:20.985Z,79.72
2018-09-28T00:17:20.978Z,79.44
2018-09-28T00:18:20.971Z,79.91
2018-09-28T00:19:20.966Z,79.35
2018-09-28T00:20:20.960Z,79.44
2018-09-28T00:21:20.957Z,79.91
2018-09-28T00:22:20.949Z,79.25
2018-09-28T00:23:20.940Z,80.49
2018-09-28T00:24:20.932Z,81.44
2018-09-28T00:25:20.924Z,80.87
2018-09-28T00:26:20.917Z,80.11
2018-09-28T00:27:20.920Z,79.63
2018-09-28T00:28:20.912Z,79.91
2018-09-28T00:29:20.906Z,80.58
2018-09-28T00:30:20.895Z,81.15
2018-09-28T00:31:20.892Z,80.58
2018-09-28T00:32:20.882Z,80.39
2018-09-28T00:33:20.872Z,80.20
2018-09-28T00:34:20.870Z,80.58
2018-09-28T00:35:20.868Z,81.06
2018-09-28T00:36:20.858Z,80.96
2018-09-28T00:37:20.849Z,82.40
2018-09-28T00:38:20.846Z,82.87
2018-09-28T00:39:20.837Z,83.59
2018-09-28T00:40:20.829Z,83.54
2018-09-28T00:41:20.826Z,82.73
2018-09-28T00:42:20.820Z,83.78
2018-09-28T00:43:20.811Z,84.74
2018-09-28T00:44:20.804Z,84.64
2018-09-28T00:45:20.804Z,84.45
2018-09-28T00:46:20.797Z,84.36
2018-09-28T00:47:20.784Z,84.36
2018-09-28T00:48:20.775Z,84.64
2018-09-28T00:49:20.773Z,84.74
2018-09-28T00:50:20.769Z,83.78
2018-09-28T00:51:20.758Z,83.40
2018-09-28T00:52:20.751Z,84.16
2018-09-28T00:53:20.743Z,84.55
2018-09-28T00:54:20.737Z,84.55
2018-09-28T00:55:20.734Z,84.07
2018-09-28T00:56:20.724Z,85.02
2018-09-28T00:57:20.718Z,84.45
2018-09-28T00:58:20.714Z,84.55
2018-09-28T00:59:20.706Z,84.45
2018-09-28T01:00:20.696Z,84.74
2018-09-28T01:01:20.693Z,85.31
2018-09-28T01:02:20.743Z,84.74
2018-09-28T01:03:20.679Z,84.36
2018-09-28T01:04:20.671Z,85.21
2018-09-28T01:05:20.669Z,84.64
2018-09-28T01:06:20.656Z,84.74
2018-09-28T01:07:20.652Z,85.50
2018-09-28T01:08:20.651Z,86.55
2018-09-28T01:09:20.640Z,87.40
2018-09-28T01:10:20.638Z,87.60
2018-09-28T01:11:20.625Z,87.60
2018-09-28T01:12:20.619Z,88.36
2018-09-28T01:13:20.614Z,87.21
2018-09-28T01:14:20.605Z,87.88
2018-09-28T01:15:20.604Z,88.36
2018-09-28T01:16:20.593Z,88.70
2018-09-28T01:17:20.584Z,89.55
2018-09-28T01:18:20.585Z,88.31
2018-09-28T01:19:20.569Z,87.07
2018-09-28T01:20:20.562Z,87.27
2018-09-28T01:21:20.560Z,87.84
2018-09-28T01:22:20.555Z,87.84
2018-09-28T01:23:20.544Z,87.07
2018-09-28T01:24:20.539Z,87.93
2018-09-28T01:25:20.532Z,87.27
2018-09-28T01:26:20.521Z,88.22
2018-09-28T01:27:20.520Z,88.22
2018-09-28T01:28:20.510Z,88.60
2018-09-28T01:29:20.505Z,87.27
2018-09-28T01:30:20.497Z,87.17
2018-09-28T01:31:20.489Z,87.84
2018-09-28T01:32:20.491Z,89.07
2018-09-28T01:33:20.476Z,89.07
2018-09-28T01:34:20.471Z,88.60
2018-09-28T01:35:20.460Z,88.41
2018-09-28T01:36:20.457Z,89.75
2018-09-28T01:38:42.055Z,89.07
2018-09-28T01:39:42.016Z,89.46
2018-09-28T01:40:42.009Z,89.55
2018-09-28T01:41:42.005Z,89.17
2018-09-28T01:42:42.000Z,89.36
2018-09-28T01:43:41.988Z,89.65
2018-09-28T01:44:41.995Z,89.75
2018-09-28T01:45:41.977Z,90.60
2018-09-28T01:46:41.967Z,91.27
2018-09-28T01:47:41.969Z,91.55
2018-09-28T01:48:41.954Z,91.65
2018-09-28T01:49:41.945Z,91.36
2018-09-28T01:50:41.944Z,91.99
2018-09-28T01:51:41.942Z,90.98
2018-09-28T01:52:41.930Z,90.22
2018-09-28T01:53:41.927Z,90.60
2018-09-28T01:54:41.916Z,90.79
2018-09-28T01:55:41.909Z,90.50
2018-09-28T01:56:41.900Z,90.98
2018-09-28T01:57:41.895Z,89.84
2018-09-28T01:58:41.886Z,91.65
2018-09-28T01:59:41.883Z,90.70
2018-09-28T02:00:41.875Z,90.98
2018-09-28T02:01:41.867Z,90.60
2018-09-28T02:02:41.857Z,90.41
2018-09-28T02:03:41.851Z,90.98
2018-09-28T02:04:41.846Z,92.03
2018-09-28T02:05:41.837Z,92.32
2018-09-28T02:06:41.834Z,92.22
2018-09-28T02:07:41.831Z,93.08
2018-09-28T02:08:41.824Z,92.32
2018-09-28T02:09:41.811Z,92.41
2018-09-28T02:10:41.804Z,91.94
2018-09-28T02:11:41.800Z,92.50
2018-09-28T02:12:41.801Z,92.13
2018-09-28T02:13:41.781Z,91.46
2018-09-28T02:14:41.779Z,93.08
2018-09-28T02:15:41.776Z,91.65
2018-09-28T02:16:41.764Z,91.94
2018-09-28T02:17:41.750Z,92.08
2018-09-28T02:18:41.754Z,92.08
2018-09-28T02:19:41.743Z,92.46
2018-09-28T02:20:41.739Z,91.31
2018-09-28T02:21:41.732Z,91.31
2018-09-28T02:22:41.721Z,91.69
2018-09-28T02:23:41.721Z,91.69
2018-09-28T02:24:41.710Z,92.17
2018-09-28T02:25:41.700Z,92.74
2018-09-28T02:26:41.722Z,92.74
2018-09-28T02:27:41.692Z,92.74
2018-09-28T02:28:41.690Z,92.84
2018-09-28T02:29:41.685Z,92.74
2018-09-28T02:30:41.672Z,93.51
2018-09-28T02:31:41.660Z,94.08
2018-09-28T02:32:41.654Z,93.51
2018-09-28T02:33:41.649Z,91.88
2018-09-28T02:34:41.671Z,92.93
2018-09-28T02:35:41.643Z,91.98
2018-09-28T02:36:41.634Z,91.60
2018-09-28T02:37:41.621Z,91.03
2018-09-28T02:38:41.623Z,91.74
2018-09-28T02:39:41.607Z,91.55
2018-09-28T02:40:41.601Z,90.93
2018-09-28T02:41:41.596Z,90.31
2018-09-28T02:42:41.592Z,91.17
2018-09-28T02:43:41.585Z,91.83
2018-09-28T02:44:41.589Z,92.69
2018-09-28T02:45:41.571Z,93.17
2018-09-28T02:46:41.564Z,93.08
2018-09-28T02:47:41.562Z,93.08
2018-09-28T02:48:41.550Z,93.65
2018-09-28T02:49:41.546Z,93.65
2018-09-28T02:50:41.545Z,93.55
2018-09-28T02:51:41.541Z,92.41
2018-09-28T02:52:41.528Z,92.22
2018-09-28T02:53:41.519Z,92.41
2018-09-28T02:54:41.510Z,92.03
2018-09-28T02:55:41.505Z,92.69
2018-09-28T02:56:41.505Z,92.79
2018-09-28T02:57:41.495Z,94.03
2018-09-28T02:58:41.489Z,93.27
2018-09-28T02:59:41.483Z,92.79
2018-09-28T03:00:41.474Z,92.79
2018-09-28T03:01:42.401Z,93.36
2018-09-28T03:02:41.463Z,94.32
2018-09-28T03:03:41.456Z,94.32
2018-09-28T03:04:41.449Z,93.17
2018-09-28T03:05:41.464Z,92.69
2018-09-28T03:06:41.437Z,92.69
2018-09-28T03:07:41.426Z,92.98
2018-09-28T03:08:41.420Z,94.03
2018-09-28T03:09:41.418Z,93.65
2018-09-28T03:10:41.408Z,94.12
2018-09-28T03:11:41.404Z,94.98
2018-09-28T03:12:41.402Z,94.51
2018-09-28T03:13:41.386Z,93.65
2018-09-28T03:14:41.386Z,94.22
2018-09-28T03:15:41.377Z,94.32
2018-09-28T03:16:41.384Z,93.84
2018-09-28T03:17:41.363Z,94.03
2018-09-28T03:18:41.358Z,93.55
2018-09-28T03:19:41.352Z,93.65
2018-09-28T03:20:41.346Z,93.46
2018-09-28T03:21:41.340Z,93.65
2018-09-28T03:22:41.338Z,93.17
2018-09-28T03:23:41.335Z,92.69
2018-09-28T03:24:41.321Z,92.41
2018-09-28T03:25:41.359Z,93.17
2018-09-28T03:26:41.312Z,94.12
2018-09-28T03:27:41.307Z,93.55
2018-09-28T03:28:41.299Z,92.98
2018-09-28T03:29:41.294Z,92.93
2018-09-28T03:30:41.286Z,92.93
2018-09-28T03:31:41.277Z,92.74
2018-09-28T03:32:41.272Z,93.02
2018-09-28T03:33:41.275Z,93.41
2018-09-28T03:34:41.266Z,92.93
2018-09-28T03:35:41.261Z,93.70
2018-09-28T03:36:41.249Z,93.41
2018-09-28T03:37:41.246Z,92.46
2018-09-28T03:38:41.238Z,93.41
2018-09-28T03:39:41.236Z,93.22
2018-09-28T03:40:41.301Z,93.12
2018-09-28T03:41:41.216Z,92.46
2018-09-28T03:42:41.216Z,93.41
2018-09-28T03:43:41.210Z,93.60
2018-09-28T03:44:55.926Z,93.41
2018-09-28T03:45:41.195Z,93.31
2018-09-28T03:46:41.193Z,92.93
2018-09-28T03:47:41.191Z,92.26
2018-09-28T03:48:41.178Z,92.65
2018-09-28T03:49:41.177Z,92.65
2018-09-28T03:50:41.163Z,93.31
2018-09-28T03:51:41.157Z,93.02
2018-09-28T03:52:41.150Z,92.74
2018-09-28T03:53:41.148Z,92.83
2018-09-28T03:54:41.142Z,93.88
2018-09-28T03:55:41.136Z,93.79
2018-09-28T03:56:41.131Z,93.60
2018-09-28T03:57:41.120Z,93.79
2018-09-28T03:58:41.118Z,92.83
2018-09-28T03:59:41.110Z,94.17
2018-09-28T04:00:41.116Z,93.88
2018-09-28T04:01:41.098Z,94.56
2018-09-28T04:02:41.094Z,93.98
2018-09-28T04:03:41.084Z,94.93
2018-09-28T04:04:41.080Z,95.03
2018-09-28T04:05:41.079Z,95.41
2018-09-28T04:06:41.066Z,94.65
2018-09-28T04:07:41.062Z,95.41
2018-09-28T04:08:41.069Z,94.56
2018-09-28T04:09:41.052Z,94.98
2018-09-28T04:10:41.043Z,95.12
2018-09-28T04:11:41.034Z,95.61
2018-09-28T04:12:41.030Z,95.17
2018-09-28T04:13:41.027Z,95.61
2018-09-28T04:14:41.020Z,94.84
2018-09-28T04:15:41.020Z,95.79
2018-09-28T04:16:41.009Z,95.70
2018-09-28T04:17:41.000Z,96.03
2018-09-28T04:18:40.993Z,95.46
2018-09-28T04:19:40.987Z,95.27
2018-09-28T04:20:40.981Z,95.84
2018-09-28T04:21:41.006Z,96.03
2018-09-28T04:22:40.973Z,95.56
2018-09-28T04:23:40.969Z,96.51
2018-09-28T04:24:40.958Z,96.98
2018-09-28T04:25:40.952Z,95.36
2018-09-28T04:26:40.949Z,95.46
2018-09-28T04:27:40.942Z,95.46
2018-09-28T04:28:40.938Z,95.27
2018-09-28T04:29:40.935Z,95.56
2018-09-28T04:30:40.932Z,95.17
2018-09-28T04:31:40.929Z,96.03
2018-09-28T04:32:40.912Z,96.32
2018-09-28T04:33:40.905Z,96.80
2018-09-28T04:34:40.903Z,96.22
2018-09-28T04:35:40.902Z,97.47
2018-09-28T04:36:40.890Z,97.85
2018-09-28T04:37:40.884Z,97.85
2018-09-28T04:38:40.877Z,97.66
2018-09-28T04:39:40.880Z,97.08
2018-09-28T04:40:40.865Z,97.18
2018-09-28T04:41:40.858Z,97.94
2018-09-28T04:42:40.853Z,98.03
2018-09-28T04:43:40.850Z,97.75
2018-09-28T04:44:40.850Z,96.98
2018-09-28T04:45:40.913Z,97.08
2018-09-28T04:46:40.828Z,98.52
2018-09-28T04:47:40.829Z,99.18
2018-09-28T04:48:40.819Z,98.13
2018-09-28T04:49:40.821Z,99.18
2018-09-28T04:50:40.806Z,98.42
2018-09-28T04:51:40.803Z,98.90
2018-09-28T04:52:40.800Z,99.99
2018-09-28T04:53:40.791Z,99.99
2018-09-28T04:54:40.794Z,99.99
2018-09-28T04:55:40.779Z,99.99
2018-09-28T04:56:40.773Z,99.99
2018-09-28T04:57:40.767Z,99.95
2018-09-28T04:58:40.766Z,99.99
2018-09-28T04:59:40.760Z,99.99
2018-09-28T05:00:40.747Z,99.99
2018-09-28T05:01:40.743Z,99.99
2018-09-28T05:02:40.742Z,99.99
2018-09-28T05:03:40.732Z,99.99
2018-09-28T05:04:40.730Z,99.99
2018-09-28T05:05:40.726Z,99.99
2018-09-28T05:06:40.721Z,99.99
2018-09-28T05:07:40.712Z,99.99
2018-09-28T05:08:40.711Z,99.99
2018-09-28T05:09:40.700Z,99.99
2018-09-28T05:10:40.696Z,99.99
2018-09-28T05:11:40.706Z,99.99
2018-09-28T05:12:40.854Z,99.99
2018-09-28T05:13:40.678Z,99.99
2018-09-28T05:14:40.696Z,99.99
2018-09-28T05:15:40.670Z,99.99
2018-09-28T05:16:40.658Z,99.99
2018-09-28T05:17:40.655Z,99.99
2018-09-28T05:18:40.652Z,99.99
2018-09-28T05:19:40.646Z,99.99
2018-09-28T05:20:40.647Z,99.99
2018-09-28T05:21:40.632Z,99.99
2018-09-28T05:22:40.651Z,99.99
2018-09-28T05:23:40.623Z,99.99
2018-09-28T05:24:40.619Z,99.99
2018-09-28T05:25:40.612Z,99.99
2018-09-28T05:26:40.602Z,99.99
2018-09-28T05:27:40.602Z,99.99
2018-09-28T05:28:40.593Z,99.99
2018-09-28T05:29:41.473Z,99.99
2018-09-28T05:30:44.966Z,99.99
2018-09-28T05:31:40.702Z,99.99
2018-09-28T05:32:40.787Z,99.99
2018-09-28T05:33:40.562Z,99.99
2018-09-28T05:34:40.560Z,99.99
2018-09-28T05:35:40.559Z,99.99
2018-09-28T05:36:40.548Z,99.99
2018-09-28T05:37:40.540Z,99.99
2018-09-28T05:38:40.535Z,99.99
2018-09-28T05:39:40.532Z,99.99
2018-09-28T05:40:40.523Z,99.99
2018-09-28T05:41:40.522Z,99.99
2018-09-28T05:42:40.515Z,99.99
2018-09-28T05:43:40.549Z,99.99
2018-09-28T05:44:40.503Z,99.99
2018-09-28T05:45:40.512Z,99.99
2018-09-28T05:46:40.497Z,99.99
2018-09-28T05:47:40.486Z,99.99
2018-09-28T05:48:40.483Z,99.99
2018-09-28T05:49:40.475Z,99.99
2018-09-28T05:50:40.466Z,99.99
2018-09-28T05:51:40.466Z,99.99
2018-09-28T05:52:40.476Z,99.99
2018-09-28T05:53:40.452Z,99.99
2018-09-28T05:54:40.458Z,99.99
2018-09-28T05:55:40.456Z,99.99
2018-09-28T05:56:40.437Z,99.99
2018-09-28T05:57:40.429Z,99.99
2018-09-28T05:58:40.508Z,99.99
2018-09-28T05:59:40.419Z,99.99
2018-09-28T06:00:40.412Z,99.99
2018-09-28T06:01:40.409Z,99.99
2018-09-28T06:02:40.400Z,99.99
2018-09-28T06:03:40.403Z,99.99
2018-09-28T06:04:40.391Z,99.99
2018-09-28T06:05:40.516Z,99.99
2018-09-28T06:06:40.377Z,99.99
2018-09-28T06:07:40.376Z,99.99
2018-09-28T06:08:40.369Z,99.99
2018-09-28T06:09:40.360Z,99.99
2018-09-28T06:10:40.355Z,99.99
2018-09-28T06:11:40.350Z,99.99
2018-09-28T06:12:40.345Z,99.99
2018-09-28T06:13:40.335Z,99.99
2018-09-28T06:14:40.332Z,99.99
2018-09-28T06:15:40.333Z,99.99
2018-09-28T06:16:40.326Z,99.99
2018-09-28T06:17:40.315Z,99.99
2018-09-28T06:18:40.405Z,99.99
2018-09-28T06:19:40.311Z,99.99
2018-09-28T06:20:40.298Z,99.99
2018-09-28T06:21:40.294Z,99.99
2018-09-28T06:22:40.287Z,99.99
2018-09-28T06:23:40.281Z,99.99
2018-09-28T06:24:40.280Z,99.99
2018-09-28T06:25:40.266Z,99.99
2018-09-28T06:26:40.262Z,99.99
2018-09-28T06:27:40.262Z,99.99
2018-09-28T06:28:40.256Z,99.99
2018-09-28T06:29:40.287Z,99.99
2018-09-28T06:30:40.254Z,99.99
2018-09-28T06:31:40.235Z,99.99
2018-09-28T06:32:40.229Z,99.99
2018-09-28T06:33:40.222Z,99.99
2018-09-28T06:34:40.215Z,99.99
2018-09-28T06:35:40.233Z,99.99
2018-09-28T06:36:40.208Z,99.99
2018-09-28T06:37:40.199Z,99.99
2018-09-28T06:38:40.193Z,99.99
2018-09-28T06:39:40.187Z,99.99
2018-09-28T06:40:40.185Z,99.99
2018-09-28T06:41:40.227Z,99.99
2018-09-28T06:42:40.167Z,99.99
2018-09-28T06:43:40.168Z,99.99
2018-09-28T06:44:40.207Z,99.99
2018-09-28T06:45:40.152Z,99.99
2018-09-28T06:46:40.144Z,99.99
2018-09-28T06:47:40.147Z,99.99
2018-09-28T06:48:40.146Z,99.99
2018-09-28T06:49:40.131Z,99.99
2018-09-28T06:50:40.124Z,99.99
2018-09-28T06:51:40.116Z,99.99
2018-09-28T06:52:40.116Z,99.99
2018-09-28T06:53:40.115Z,99.99
2018-09-28T06:54:40.097Z,99.99
2018-09-28T06:55:40.091Z,99.99
2018-09-28T06:56:40.090Z,99.99
2018-09-28T06:57:40.080Z,99.99
2018-09-28T06:58:40.077Z,99.99
2018-09-28T06:59:40.118Z,99.99
2018-09-28T07:00:40.070Z,99.99
2018-09-28T07:01:40.059Z,99.99
2018-09-28T07:02:40.050Z,99.99
2018-09-28T07:03:40.046Z,99.99
2018-09-28T07:04:40.045Z,99.99
2018-09-28T07:05:40.037Z,99.99
2018-09-28T07:06:40.026Z,99.99
2018-09-28T07:07:40.018Z,99.99
2018-09-28T07:08:40.022Z,99.99
2018-09-28T07:09:40.007Z,99.99
2018-09-28T07:10:40.005Z,99.99
2018-09-28T07:11:40.051Z,99.99
2018-09-28T07:12:39.998Z,99.99
2018-09-28T07:13:39.985Z,99.99
2018-09-28T07:14:39.977Z,99.99
2018-09-28T07:15:39.974Z,99.99
2018-09-28T07:16:40.028Z,99.99
2018-09-28T07:17:40.003Z,99.99
2018-09-28T07:18:39.957Z,99.99
2018-09-28T07:19:39.952Z,99.99
2018-09-28T07:20:39.944Z,99.99
2018-09-28T07:21:39.935Z,99.99
2018-09-28T07:22:39.929Z,99.99
2018-09-28T07:23:39.926Z,99.99
2018-09-28T07:24:39.978Z,99.99
2018-09-28T07:25:39.962Z,99.95
2018-09-28T07:26:39.915Z,99.99
2018-09-28T07:27:39.904Z,99.95
2018-09-28T07:28:39.894Z,99.85
2018-09-28T07:29:39.893Z,99.57
2018-09-28T07:30:39.885Z,99.38
2018-09-28T07:31:39.881Z,99.76
2018-09-28T07:32:39.879Z,98.80
2018-09-28T07:33:39.868Z,98.71
2018-09-28T07:34:39.862Z,98.42
2018-09-28T07:35:39.883Z,98.71
2018-09-28T07:36:39.962Z,98.80
2018-09-28T07:37:39.849Z,98.33
2018-09-28T07:38:39.855Z,98.38
2018-09-28T07:39:39.832Z,99.09
2018-09-28T07:40:39.867Z,98.04
2018-09-28T07:41:39.868Z,97.66
2018-09-28T07:42:39.822Z,98.38
2018-09-28T07:43:39.809Z,97.13
2018-09-28T07:44:39.807Z,97.71
2018-09-28T07:45:39.804Z,97.04
2018-09-28T07:46:39.792Z,97.23
2018-09-28T07:47:39.827Z,97.23
2018-09-28T07:48:39.782Z,97.23
2018-09-28T07:49:39.774Z,97.33
2018-09-28T07:50:39.774Z,97.23
2018-09-28T07:51:39.766Z,97.04
2018-09-28T07:52:39.762Z,96.47
2018-09-28T07:53:39.765Z,95.89
2018-09-28T07:54:39.751Z,95.51
2018-09-28T07:55:39.754Z,95.41
2018-09-28T07:56:39.744Z,96.18
2018-09-28T07:57:39.739Z,95.41
2018-09-28T07:58:39.735Z,95.03
2018-09-28T07:59:39.724Z,95.70
2018-09-28T08:00:39.721Z,95.03
2018-09-28T08:01:39.714Z,94.17
2018-09-28T08:02:39.710Z,93.50
2018-09-28T08:03:39.703Z,93.02
2018-09-28T08:04:39.699Z,92.93
2018-09-28T08:05:39.691Z,93.40
2018-09-28T08:06:39.710Z,93.69
2018-09-28T08:07:39.686Z,93.02
2018-09-28T08:08:39.678Z,92.07
2018-09-28T08:09:39.675Z,92.25
2018-09-28T08:10:39.672Z,92.25
2018-09-28T08:11:39.660Z,91.97
2018-09-28T08:12:39.657Z,91.68
2018-09-28T08:13:39.649Z,90.73
2018-09-28T08:14:39.651Z,91.30
2018-09-28T08:15:39.644Z,89.39
2018-09-28T08:16:39.638Z,89.39
2018-09-28T08:17:39.634Z,89.67
2018-09-28T08:18:39.625Z,89.48
2018-09-28T08:19:39.647Z,88.05
2018-09-28T08:20:39.614Z,88.53
2018-09-28T08:21:39.618Z,88.62
2018-09-28T08:22:39.603Z,88.62
2018-09-28T08:23:39.601Z,87.95
2018-09-28T08:24:39.673Z,88.09
2018-09-28T08:25:41.556Z,86.94
2018-09-28T08:26:39.692Z,87.04
2018-09-28T08:27:39.658Z,86.61
2018-09-28T08:28:39.730Z,86.33
2018-09-28T08:29:39.572Z,86.43
2018-09-28T08:30:39.572Z,86.23
2018-09-28T08:31:39.559Z,86.33
2018-09-28T08:32:40.920Z,86.43
2018-09-28T08:33:42.009Z,86.23
2018-09-28T08:34:40.670Z,86.23
2018-09-28T08:35:39.539Z,86.33
2018-09-28T08:36:39.566Z,86.43
2018-09-28T08:37:39.529Z,88.15
2018-09-28T08:38:39.518Z,89.96
2018-09-28T08:39:39.515Z,91.20
2018-09-28T08:40:39.516Z,91.68
2018-09-28T08:41:40.109Z,93.88
2018-09-28T08:42:39.500Z,94.07
2018-09-28T08:43:39.559Z,95.17
2018-09-28T08:44:39.492Z,95.94
2018-09-28T08:45:39.479Z,96.32
2018-09-28T08:46:39.482Z,96.99
2018-09-28T08:47:39.472Z,97.08
2018-09-28T08:48:39.468Z,97.75
2018-09-28T08:49:39.462Z,98.13
2018-09-28T08:50:39.456Z,98.28
2018-09-28T08:51:39.449Z,98.28
2018-09-28T08:52:39.450Z,98.66
2018-09-28T08:53:39.459Z,98.47
2018-09-28T08:54:39.434Z,98.52
2018-09-28T08:55:39.429Z,98.52
2018-09-28T08:56:39.420Z,98.42
2018-09-28T08:57:39.427Z,97.85
2018-09-28T08:58:39.417Z,97.37
2018-09-28T08:59:39.409Z,97.47
2018-09-28T09:00:39.401Z,96.89
2018-09-28T09:01:39.395Z,96.22
2018-09-28T09:02:39.389Z,96.03
2018-09-28T09:03:39.385Z,95.51
2018-09-28T09:04:39.380Z,95.61
2018-09-28T09:05:39.378Z,94.74
2018-09-28T09:06:39.371Z,94.84
2018-09-28T09:07:39.370Z,94.74
2018-09-28T09:08:39.357Z,94.07
2018-09-28T09:09:39.353Z,93.31
2018-09-28T09:10:39.349Z,93.21
2018-09-28T09:11:39.346Z,93.98
2018-09-28T09:12:39.346Z,92.54
2018-09-28T09:13:39.341Z,92.25
2018-09-28T09:14:39.329Z,91.97
2018-09-28T09:15:39.328Z,91.83
2018-09-28T09:16:39.318Z,90.77
2018-09-28T09:17:39.316Z,91.49
2018-09-28T09:18:39.309Z,91.97
2018-09-28T09:19:39.306Z,90.44
2018-09-28T09:20:39.300Z,90.06
2018-09-28T09:21:39.296Z,91.11
2018-09-28T09:22:39.288Z,89.20
2018-09-28T09:23:39.287Z,89.01
2018-09-28T09:24:39.281Z,89.10
2018-09-28T09:25:39.275Z,89.10
2018-09-28T09:26:39.269Z,87.57
2018-09-28T09:27:39.270Z,87.52
2018-09-28T09:28:39.260Z,87.38
2018-09-28T09:29:39.256Z,87.38
2018-09-28T09:30:39.249Z,87.52
2018-09-28T09:31:39.248Z,87.62
2018-09-28T09:32:39.244Z,86.85
2018-09-28T09:33:39.233Z,87.14
2018-09-28T09:34:39.239Z,86.28
2018-09-28T09:35:39.230Z,85.41
2018-09-28T09:36:39.272Z,84.75
2018-09-28T09:37:39.217Z,83.79
2018-09-28T09:38:39.219Z,83.50
2018-09-28T09:39:39.208Z,83.31
2018-09-28T09:40:39.215Z,83.22
2018-09-28T09:41:39.200Z,82.07
2018-09-28T09:42:39.263Z,82.07
2018-09-28T09:43:39.189Z,81.11
2018-09-28T09:44:39.182Z,80.63
2018-09-28T09:45:39.183Z,79.39
2018-09-28T09:46:39.174Z,79.00
2018-09-28T09:47:39.176Z,78.43
2018-09-28T09:48:39.181Z,78.91
2018-09-28T09:49:39.166Z,77.67
2018-09-28T09:50:39.156Z,77.48
2018-09-28T09:51:39.151Z,77.99
2018-09-28T09:52:39.144Z,77.42
2018-09-28T09:53:39.140Z,76.81
2018-09-28T09:54:39.141Z,77.28
2018-09-28T09:55:39.134Z,76.14
2018-09-28T09:56:39.129Z,75.95
2018-09-28T09:57:39.134Z,76.33
2018-09-28T09:58:39.123Z,76.23
2018-09-28T09:59:39.113Z,76.04
2018-09-28T10:00:39.110Z,76.14
2018-09-28T10:01:39.101Z,76.75
2018-09-28T10:02:39.100Z,76.52
2018-09-28T10:03:39.100Z,76.14
2018-09-28T10:04:39.088Z,76.71
2018-09-28T10:05:39.083Z,77.95
2018-09-28T10:06:39.076Z,77.76
2018-09-28T10:07:39.076Z,77.28
2018-09-28T10:08:39.078Z,76.71
2018-09-28T10:09:39.083Z,75.12
2018-09-28T10:10:39.065Z,75.70
2018-09-28T10:11:39.059Z,75.41
2018-09-28T10:12:39.092Z,75.02
2018-09-28T10:13:39.049Z,74.93
2018-09-28T10:14:39.039Z,73.59
2018-09-28T10:15:39.036Z,73.21
2018-09-28T10:16:39.034Z,73.11
2018-09-28T10:17:39.033Z,73.21
2018-09-28T10:18:39.029Z,72.34
2018-09-28T10:19:39.027Z,72.25
2018-09-28T10:20:39.015Z,72.34
2018-09-28T10:21:39.010Z,71.87
2018-09-28T10:22:39.004Z,70.91
2018-09-28T10:23:39.002Z,71.77
2018-09-28T10:24:39.006Z,70.43
2018-09-28T10:25:38.998Z,70.76
2018-09-28T10:26:38.989Z,70.09
2018-09-28T10:27:39.639Z,69.80
2018-09-28T10:28:39.045Z,68.55
2018-09-28T10:29:38.973Z,67.11
2018-09-28T10:30:38.971Z,68.27
2018-09-28T10:31:38.963Z,67.98
2018-09-28T10:32:38.964Z,67.79
2018-09-28T10:33:39.008Z,67.02
2018-09-28T10:34:38.994Z,65.58
2018-09-28T10:35:38.952Z,65.49
2018-09-28T10:36:38.944Z,65.01
2018-09-28T10:37:38.943Z,64.53
2018-09-28T10:38:38.939Z,63.67
2018-09-28T10:39:38.945Z,63.76
2018-09-28T10:40:39.070Z,63.29
2018-09-28T10:41:38.932Z,63.67
2018-09-28T10:42:38.943Z,63.67
2018-09-28T10:43:38.925Z,64.82
2018-09-28T10:44:38.920Z,64.34
2018-09-28T10:45:38.922Z,64.82
2018-09-28T10:46:38.967Z,63.10
2018-09-28T10:47:38.905Z,63.39
2018-09-28T10:48:38.897Z,63.39
2018-09-28T10:49:38.892Z,64.09
2018-09-28T10:50:38.888Z,62.65
2018-09-28T10:51:38.897Z,62.07
2018-09-28T10:52:38.979Z,61.98
2018-09-28T10:53:38.884Z,63.22
2018-09-28T10:54:38.875Z,62.87
2018-09-28T10:55:38.875Z,62.68
2018-09-28T10:56:38.870Z,62.39
2018-09-28T10:57:38.864Z,61.66
2018-09-28T10:58:38.874Z,62.16
2018-09-28T10:59:38.870Z,59.38
2018-09-28T11:00:38.863Z,58.74
2018-09-28T11:01:38.860Z,57.68
2018-09-28T11:02:38.854Z,57.43
2018-09-28T11:03:38.863Z,55.89
2018-09-28T11:04:38.923Z,55.44
2018-09-28T11:05:38.860Z,53.78
2018-09-28T11:06:38.854Z,53.68
2018-09-28T11:07:38.853Z,53.94
2018-09-28T11:08:38.909Z,55.00
2018-09-28T11:09:38.864Z,55.77
2018-09-28T11:10:38.906Z,55.55
2018-09-28T11:11:38.852Z,56.60
2018-09-28T11:12:38.856Z,56.79
2018-09-28T11:13:38.857Z,56.51
2018-09-28T11:14:38.858Z,56.98
2018-09-28T11:15:38.871Z,57.59
2018-09-28T11:16:38.856Z,57.97
2018-09-28T11:17:38.856Z,57.68
2018-09-28T11:18:38.853Z,57.23
2018-09-28T11:19:38.855Z,57.33
2018-09-28T11:20:38.862Z,57.33
2018-09-28T11:21:38.889Z,56.18
2018-09-28T11:22:38.856Z,56.68
2018-09-28T11:23:40.748Z,56.59
2018-09-28T11:24:40.447Z,56.49
2018-09-28T11:25:40.642Z,56.14
2018-09-28T11:26:40.075Z,54.50
2018-09-28T11:27:38.899Z,53.92
2018-09-28T11:28:39.020Z,54.31
2018-09-28T11:29:39.009Z,53.83
2018-09-28T11:30:38.925Z,53.16
2018-09-28T11:31:38.868Z,52.10
2018-09-28T11:32:38.895Z,52.36
2018-09-28T11:33:39.079Z,53.58
2018-09-28T11:34:38.943Z,55.02
2018-09-28T11:35:39.092Z,55.12
2018-09-28T11:36:38.870Z,55.69
2018-09-28T11:37:38.869Z,56.08
2018-09-28T11:38:38.870Z,56.66
2018-09-28T11:39:40.827Z,56.37
2018-09-28T11:40:38.867Z,56.46
2018-09-28T11:41:39.467Z,56.46
2018-09-28T11:42:40.204Z,56.18
2018-09-28T11:43:39.002Z,55.02
2018-09-28T11:44:38.879Z,55.32
2018-09-28T11:45:38.918Z,56.66
2018-09-28T11:46:39.682Z,56.63
2018-09-28T11:47:39.610Z,56.76
2018-09-28T11:48:40.257Z,56.05
2018-09-28T11:49:38.870Z,56.63
2018-09-28T11:50:38.871Z,54.90
2018-09-28T11:51:38.887Z,55.10
2018-09-28T11:52:38.869Z,55.47
2018-09-28T11:53:38.869Z,55.16
2018-09-28T11:54:38.868Z,54.88
2018-09-28T11:55:39.381Z,55.10
2018-09-28T11:56:38.989Z,53.53
2018-09-28T11:57:38.883Z,54.58
2018-09-28T11:58:38.958Z,54.78
2018-09-28T11:59:38.870Z,55.96
2018-09-28T12:00:38.871Z,54.80
2018-09-28T12:01:38.856Z,54.42
2018-09-28T12:02:38.864Z,53.68
2018-09-28T12:03:38.931Z,53.97
2018-09-28T12:04:38.861Z,52.62
2018-09-28T12:05:38.868Z,52.43
2018-09-28T12:06:39.128Z,52.14
2018-09-28T12:07:38.861Z,52.24
2018-09-28T12:08:38.935Z,53.11
2018-09-28T12:09:39.043Z,52.34
2018-09-28T12:10:39.095Z,52.26
2018-09-28T12:11:39.036Z,50.90
2018-09-28T12:12:39.061Z,50.61
2018-09-28T12:13:38.967Z,50.54
2018-09-28T12:14:38.996Z,50.34
2018-09-28T12:15:38.915Z,50.05
2018-09-28T12:16:38.995Z,49.57
2018-09-28T12:17:38.940Z,49.48
2018-09-28T12:18:38.990Z,49.07
2018-09-28T12:19:38.975Z,50.03
2018-09-28T12:20:38.993Z,49.55
2018-09-28T12:21:38.989Z,49.93
2018-09-28T12:22:38.937Z,50.34
2018-09-28T12:23:39.802Z,50.44
2018-09-28T12:24:39.004Z,49.96
2018-09-28T12:25:39.045Z,50.15
2018-09-28T12:26:38.988Z,51.11
2018-09-28T12:27:39.180Z,50.27
2018-09-28T12:28:39.069Z,50.56
2018-09-28T12:29:41.312Z,49.69
2018-09-28T12:30:41.590Z,49.82
2018-09-28T12:31:42.554Z,48.95
2018-09-28T12:32:40.836Z,48.95
2018-09-28T12:33:40.617Z,49.17
2018-09-28T12:34:42.438Z,48.18
2018-09-28T12:35:39.448Z,47.34
2018-09-28T12:36:40.456Z,45.97
2018-09-28T12:37:40.515Z,45.78
2018-09-28T12:38:41.467Z,46.64
2018-09-28T12:39:38.956Z,47.70
2018-09-28T12:40:38.911Z,47.89
2018-09-28T12:41:41.523Z,47.41
2018-09-28T12:42:42.039Z,47.61
2018-09-28T12:43:43.602Z,46.93
2018-09-28T12:44:40.896Z,47.89
2018-09-28T12:45:41.518Z,47.99
2018-09-28T12:46:38.929Z,47.63
2018-09-28T12:47:38.949Z,47.63
2018-09-28T12:48:39.129Z,47.05
2018-09-28T12:49:38.996Z,47.63
2018-09-28T12:50:39.004Z,47.82
2018-09-28T12:51:39.061Z,47.53
2018-09-28T12:52:38.944Z,45.22
2018-09-28T12:53:39.139Z,45.90